createdAt,value
2022-10-08T00:04:13.526Z,11.40
2022-10-08T00:09:18.323Z,11.40
2022-10-08T00:14:24.024Z,11.30
2022-10-08T00:19:27.947Z,11.20
2022-10-08T00:24:33.007Z,11.20
2022-10-08T00:29:36.704Z,11.10
2022-10-08T00:34:41.315Z,11.00
2022-10-08T00:39:46.005Z,11.00
2022-10-08T00:44:55.544Z,11.00
2022-10-08T00:50:02.063Z,11.20
2022-10-08T00:55:10.006Z,11.10
2022-10-08T01:00:15.722Z,11.10
2022-10-08T01:05:24.605Z,11.10
2022-10-08T01:10:35.495Z,10.80
2022-10-08T01:15:45.765Z,10.60
2022-10-08T01:21:01.226Z,10.60
2022-10-08T01:26:26.233Z,10.40
2022-10-08T01:31:35.177Z,10.10
2022-10-08T01:36:43.414Z,10.10
2022-10-08T01:41:52.571Z,10.10
2022-10-08T01:46:59.827Z,10.00
2022-10-08T01:52:08.542Z,10.10
2022-10-08T01:57:12.940Z,10.10
2022-10-08T02:02:21.611Z,10.00
2022-10-08T02:07:27.966Z,9.90
2022-10-08T02:12:31.730Z,9.90
2022-10-08T02:17:45.066Z,9.90
2022-10-08T02:22:54.136Z,9.90
2022-10-08T02:28:07.479Z,10.00
2022-10-08T02:33:17.118Z,10.10
2022-10-08T02:38:24.862Z,10.10
2022-10-08T02:43:32.422Z,10.20
2022-10-08T02:48:42.354Z,11.40
2022-10-08T02:53:48.374Z,10.30
2022-10-08T02:58:52.085Z,10.30
2022-10-08T03:04:01.590Z,10.20
2022-10-08T03:09:08.336Z,10.10
2022-10-08T03:14:15.178Z,10.20
2022-10-08T03:19:20.291Z,10.40
2022-10-08T03:24:23.604Z,10.50
2022-10-08T03:29:26.896Z,10.50
2022-10-08T03:34:31.557Z,10.40
2022-10-08T03:39:34.810Z,10.50
2022-10-08T03:44:38.082Z,10.80
2022-10-08T03:49:42.826Z,10.80
2022-10-08T03:54:46.101Z,10.80
2022-10-08T03:59:49.461Z,10.80
2022-10-08T04:04:54.203Z,10.90
2022-10-08T04:09:57.445Z,10.90
2022-10-08T04:15:00.750Z,10.10
2022-10-08T04:20:05.755Z,11.10
2022-10-08T04:25:09.378Z,11.00
2022-10-08T04:30:13.346Z,10.90
2022-10-08T04:35:18.134Z,10.90
2022-10-08T04:40:21.389Z,10.80
2022-10-08T04:45:24.740Z,10.90
2022-10-08T04:50:29.474Z,10.90
2022-10-08T04:55:32.818Z,10.90
2022-10-08T05:00:37.001Z,10.90
2022-10-08T05:05:42.623Z,11.20
2022-10-08T05:10:50.045Z,11.20
2022-10-08T05:15:53.566Z,11.20
2022-10-08T05:20:58.233Z,11.10
2022-10-08T05:26:02.405Z,11.20
2022-10-08T05:31:05.897Z,11.20
2022-10-08T05:36:17.255Z,11.30
2022-10-08T05:41:24.412Z,11.30
2022-10-08T05:46:29.458Z,11.30
2022-10-08T05:51:34.159Z,11.20
2022-10-08T05:56:37.433Z,11.40
2022-10-08T06:01:40.770Z,11.30
2022-10-08T06:06:46.128Z,11.40
2022-10-08T06:11:50.814Z,11.30
2022-10-08T06:16:54.139Z,11.40
2022-10-08T06:21:58.756Z,11.50
2022-10-08T06:27:01.992Z,11.40
2022-10-08T06:32:05.268Z,11.40
2022-10-08T06:37:09.935Z,11.50
2022-10-08T06:42:13.211Z,11.70
2022-10-08T06:47:16.445Z,11.70
2022-10-08T06:52:21.073Z,11.90
2022-10-08T06:57:24.402Z,11.90
2022-10-08T07:02:27.690Z,15.20
2022-10-08T07:07:32.329Z,12.20
2022-10-08T07:12:35.568Z,12.40
2022-10-08T07:17:38.813Z,12.40
2022-10-08T07:22:43.441Z,12.50
2022-10-08T07:27:47.313Z,12.40
2022-10-08T07:32:53.828Z,12.30
2022-10-08T07:37:58.702Z,12.40
2022-10-08T07:43:02.206Z,12.20
2022-10-08T07:48:05.589Z,12.20
2022-10-08T07:53:10.239Z,12.20
2022-10-08T07:58:14.598Z,12.30
2022-10-08T08:03:17.881Z,12.30
2022-10-08T08:08:24.891Z,12.30
2022-10-08T08:13:34.302Z,12.50
2022-10-08T08:18:41.840Z,12.40
2022-10-08T08:23:49.193Z,12.40
2022-10-08T08:28:53.754Z,12.40
2022-10-08T08:33:58.688Z,16.50
2022-10-08T08:39:03.552Z,13.20
2022-10-08T08:44:12.639Z,13.20
2022-10-08T08:49:22.620Z,13.40
2022-10-08T08:54:28.540Z,13.60
2022-10-08T08:59:37.733Z,10.50
2022-10-08T09:04:45.665Z,13.70
2022-10-08T09:09:54.012Z,13.80
2022-10-08T09:15:00.241Z,13.90
2022-10-08T09:20:03.952Z,14.00
2022-10-08T09:25:13.858Z,13.80
2022-10-08T09:30:33.379Z,14.10
2022-10-08T09:35:45.180Z,14.60
2022-10-08T09:41:01.315Z,14.70
2022-10-08T09:46:11.893Z,14.80
2022-10-08T09:51:17.754Z,14.90
2022-10-08T09:56:28.153Z,15.00
2022-10-08T10:01:32.529Z,14.70
2022-10-08T10:06:38.770Z,14.70
2022-10-08T10:11:48.170Z,14.60
2022-10-08T10:16:58.734Z,14.90
2022-10-08T10:22:04.888Z,14.80
2022-10-08T10:27:13.836Z,15.20
2022-10-08T10:32:22.729Z,15.10
2022-10-08T10:37:35.441Z,15.30
2022-10-08T10:42:47.565Z,15.40
2022-10-08T10:47:52.159Z,15.50
2022-10-08T10:53:06.067Z,15.40
2022-10-08T10:58:32.046Z,15.80
2022-10-08T11:03:41.030Z,15.90
2022-10-08T11:08:53.705Z,16.40
2022-10-08T11:14:18.232Z,16.80
2022-10-08T11:19:39.154Z,16.70
2022-10-08T11:24:56.601Z,16.10
2022-10-08T11:30:06.222Z,15.60
2022-10-08T11:35:26.790Z,16.30
2022-10-08T11:40:35.901Z,16.50
2022-10-08T11:45:42.744Z,16.70
2022-10-08T11:50:46.078Z,17.00
2022-10-08T11:55:53.660Z,17.00
2022-10-08T12:01:06.549Z,16.90
2022-10-08T12:06:26.717Z,16.90
2022-10-08T12:11:53.878Z,16.80
2022-10-08T12:17:11.690Z,16.80
2022-10-08T12:22:44.531Z,16.70
2022-10-08T12:27:47.908Z,17.30
2022-10-08T12:32:57.408Z,17.40
2022-10-08T12:38:26.982Z,17.10
2022-10-08T12:43:38.039Z,18.00
2022-10-08T12:48:50.489Z,18.10
2022-10-08T12:53:53.847Z,17.90
2022-10-08T12:58:59.660Z,17.50
2022-10-08T13:04:20.467Z,17.40
2022-10-08T13:09:27.795Z,17.70
2022-10-08T13:14:33.267Z,17.60
2022-10-08T13:19:39.675Z,17.70
2022-10-08T13:24:43.391Z,18.20
2022-10-08T13:29:46.651Z,18.40
2022-10-08T13:34:53.335Z,18.60
2022-10-08T13:39:58.600Z,18.90
2022-10-08T13:45:02.797Z,19.00
2022-10-08T13:50:08.657Z,18.50
2022-10-08T13:55:22.558Z,18.70
2022-10-08T14:00:25.836Z,18.40
2022-10-08T14:05:33.717Z,19.00
2022-10-08T14:10:37.089Z,19.10
2022-10-08T14:15:40.894Z,19.50
2022-10-08T14:20:45.640Z,18.90
2022-10-08T14:25:48.928Z,18.40
2022-10-08T14:30:52.176Z,17.80
2022-10-08T14:35:56.894Z,17.60
2022-10-08T14:41:01.007Z,17.60
2022-10-08T14:46:04.474Z,17.50
2022-10-08T14:51:09.233Z,17.20
2022-10-08T14:56:13.142Z,17.20
2022-10-08T15:01:16.572Z,16.70
2022-10-08T15:06:21.235Z,16.50
2022-10-08T15:11:24.494Z,16.40
2022-10-08T15:16:27.895Z,16.30
2022-10-08T15:21:32.530Z,16.20
2022-10-08T15:26:36.099Z,16.30
2022-10-08T15:31:39.388Z,16.30
2022-10-08T15:36:44.050Z,16.10
2022-10-08T15:41:49.677Z,16.10
2022-10-08T15:46:59.643Z,15.90
2022-10-08T15:52:06.187Z,15.80
2022-10-08T15:57:11.047Z,15.70
2022-10-08T16:02:17.359Z,15.40
2022-10-08T16:07:22.647Z,15.20
2022-10-08T16:12:25.986Z,15.10
2022-10-08T16:17:29.224Z,15.00
2022-10-08T16:22:33.858Z,14.90
2022-10-08T16:27:37.107Z,19.20
2022-10-08T16:32:40.383Z,14.70
2022-10-08T16:37:44.996Z,14.50
2022-10-08T16:42:48.573Z,14.40
2022-10-08T16:47:52.076Z,14.30
2022-10-08T16:52:56.744Z,14.20
2022-10-08T16:58:00.005Z,14.10
2022-10-08T17:03:03.301Z,14.00
2022-10-08T17:08:07.978Z,13.80
2022-10-08T17:13:11.261Z,13.70
2022-10-08T17:18:14.507Z,13.50
2022-10-08T17:23:19.166Z,13.40
2022-10-08T17:28:22.595Z,13.20
2022-10-08T17:33:33.306Z,13.00
2022-10-08T17:38:41.669Z,17.70
2022-10-08T17:43:47.770Z,12.70
2022-10-08T17:48:51.287Z,12.50
2022-10-08T17:53:57.482Z,12.40
2022-10-08T17:59:01.202Z,12.20
2022-10-08T18:04:06.629Z,12.10
2022-10-08T18:09:13.769Z,11.90
2022-10-08T18:14:17.494Z,11.90
2022-10-08T18:19:20.907Z,11.90
2022-10-08T18:24:27.120Z,11.70
2022-10-08T18:29:30.373Z,11.60
2022-10-08T18:34:33.686Z,11.50
2022-10-08T18:39:38.340Z,11.50
2022-10-08T18:44:41.585Z,11.50
2022-10-08T18:49:44.869Z,11.30
2022-10-08T18:54:49.473Z,11.20
2022-10-08T18:59:52.814Z,11.20
2022-10-08T19:04:58.028Z,11.20
2022-10-08T19:10:02.746Z,11.20
2022-10-08T19:15:06.841Z,11.00
2022-10-08T19:20:10.512Z,10.90
2022-10-08T19:25:15.410Z,10.90
2022-10-08T19:30:23.910Z,10.80
2022-10-08T19:35:28.997Z,10.80
2022-10-08T19:40:35.667Z,10.70
2022-10-08T19:45:38.962Z,10.70
2022-10-08T19:50:42.273Z,10.70
2022-10-08T19:55:46.966Z,10.70
2022-10-08T20:00:59.279Z,10.70
2022-10-08T20:06:03.607Z,10.70
2022-10-08T20:11:11.423Z,10.60
2022-10-08T20:16:16.163Z,10.50
2022-10-08T20:21:20.670Z,10.30
2022-10-08T20:26:26.710Z,10.30
2022-10-08T20:31:31.694Z,10.20
2022-10-08T20:36:36.039Z,10.10
2022-10-08T20:41:40.840Z,10.10
2022-10-08T20:46:44.339Z,10.00
2022-10-08T20:51:47.725Z,11.00
2022-10-08T20:56:52.356Z,9.70
2022-10-08T21:01:55.857Z,9.60
2022-10-08T21:07:00.002Z,9.40
2022-10-08T21:12:04.815Z,9.20
2022-10-08T21:17:08.070Z,9.00
2022-10-08T21:22:11.333Z,9.10
2022-10-08T21:27:15.972Z,9.00
2022-10-08T21:32:19.214Z,8.90
2022-10-08T21:37:22.464Z,8.90
2022-10-08T21:42:26.966Z,8.90
2022-10-08T21:47:30.454Z,8.90
2022-10-08T21:52:33.987Z,8.80
2022-10-08T21:57:39.899Z,8.70
2022-10-08T22:02:43.173Z,8.50
2022-10-08T22:07:46.615Z,8.70
2022-10-08T22:12:51.427Z,8.60
2022-10-08T22:17:54.878Z,8.60
2022-10-08T22:22:58.459Z,8.40
2022-10-08T22:28:03.391Z,8.30
2022-10-08T22:33:06.839Z,8.20
2022-10-08T22:38:10.455Z,8.00
2022-10-08T22:43:15.300Z,8.10
2022-10-08T22:48:18.594Z,7.90
2022-10-08T22:53:21.850Z,7.80
2022-10-08T22:58:26.717Z,7.90
2022-10-08T23:03:30.139Z,7.80
2022-10-08T23:13:39.269Z,7.70
2022-10-08T23:18:45.030Z,7.60
2022-10-08T23:23:49.415Z,7.50
2022-10-08T23:28:56.171Z,7.30
2022-10-08T23:33:59.923Z,7.40
2022-10-08T23:39:03.692Z,7.30
2022-10-08T23:44:09.021Z,7.30
2022-10-08T23:49:12.268Z,7.30
2022-10-08T23:54:15.529Z,7.20
2022-10-08T23:59:20.538Z,7.10
